Pedro Andre — CUDD4 — position and weather

sailwx.info

Track history (hours):
 
Tides and Currents Weather Stations Pressure Air Temp Water Temp Dewpoint Dewpoint Depression Visibility Wind Speed Wind Dir Waves Ship Positions

Pedro Andre

Last reported at 2018-Jun-21 08:30 UTC. Time now 2018-Jun-21 08:31 UTC.
Position N 41°11' W 008°42'.

Length 22 m.

Type: Fishing. MMSI: 263500208.

Date/timePositionNaut miles runAvg speedWind from/ knotsBaromVisibWave heightAir tempDewpointWater temp
2018-Jun-21 08:30N 41°11' W 008°42'0 0.3
2018-Jun-21 08:00N 41°11' W 008°42'0 0.0
2018-Jun-21 07:30N 41°11' W 008°42'0 0.3
2018-Jun-21 07:00N 41°11' W 008°42'0 0.0
2018-Jun-21 06:30N 41°11' W 008°42'3 0.3
2018-Jun-20 22:07N 41°08' W 008°43'1 9.9
2018-Jun-20 22:00N 41°09' W 008°43'2 0.1
2018-Jun-20 04:52N 41°11' W 008°42'3 7.1
2018-Jun-20 04:30N 41°09' W 008°43'2 0.3
2018-Jun-19 22:21N 41°09' W 008°45'3 8.8
2018-Jun-19 22:00N 41°11' W 008°42'0 0.0
2018-Jun-19 07:09N 41°11' W 008°42'0 0.0
2018-Jun-19 07:00N 41°11' W 008°42'0 0.0
2018-Jun-19 06:30N 41°11' W 008°42'0 0.0
2018-Jun-19 06:00N 41°11' W 008°42'0 0.0
2018-Jun-19 05:30N 41°11' W 008°42'0 0.0
2018-Jun-19 04:59N 41°11' W 008°42'0 0.0
2018-Jun-19 04:30N 41°11' W 008°42'0 0.0
2018-Jun-19 04:00N 41°11' W 008°42'2 0.3
2018-Jun-18 22:19N 41°09' W 008°43'2 5.9
2018-Jun-18 22:00N 41°11' W 008°42'0 0.0
2018-Jun-18 21:30N 41°11' W 008°42'0 0.0
2018-Jun-18 12:38N 41°11' W 008°42'0 0.0
2018-Jun-18 12:30N 41°11' W 008°42'0 0.0
2018-Jun-18 12:00N 41°11' W 008°42'0 0.0
2018-Jun-18 11:30N 41°11' W 008°42'0 0.0
2018-Jun-18 11:00N 41°11' W 008°42'0 0.3
2018-Jun-18 10:30N 41°11' W 008°42'2 0.2
2018-Jun-18 00:51N 41°09' W 008°44'2 6.3
2018-Jun-18 00:30N 41°11' W 008°42'0 0.0
2018-Jun-18 00:00N 41°11' W 008°42'0 0.0
2018-Jun-17 23:29N 41°11' W 008°42'0 0.0
2018-Jun-17 23:00N 41°11' W 008°42'0 0.0
2018-Jun-17 22:30N 41°11' W 008°42'0 0.0
2018-Jun-17 22:00N 41°11' W 008°42'  
2018-Jun-15 08:58N 41°11' W 008°42'0 0.0
2018-Jun-15 08:30N 41°11' W 008°42'0 0.0
2018-Jun-15 07:59N 41°11' W 008°42'0 0.0
2018-Jun-15 07:30N 41°11' W 008°42'0 0.0
2018-Jun-15 07:00N 41°11' W 008°42'3 0.5
2018-Jun-15 00:48N 41°08' W 008°42'2 8.4
2018-Jun-15 00:30N 41°10' W 008°42'1 1.3
2018-Jun-15 00:00N 41°11' W 008°42'0 0.0
2018-Jun-14 23:30N 41°11' W 008°42'0 0.0
2018-Jun-14 23:00N 41°11' W 008°42'0 0.0
2018-Jun-14 22:30N 41°11' W 008°42'0 0.0
2018-Jun-14 22:00N 41°11' W 008°42'0 0.0
2018-Jun-14 10:22N 41°11' W 008°42'0 0.0
2018-Jun-14 10:00N 41°11' W 008°42'0 0.0
2018-Jun-14 09:30N 41°11' W 008°42'0 0.8
2018-Jun-14 09:00N 41°11' W 008°42'2 0.2
2018-Jun-14 00:46N 41°09' W 008°43'2 7.8
2018-Jun-14 00:30N 41°11' W 008°42'0 0.0
2018-Jun-14 00:00N 41°11' W 008°42'0 0.0
2018-Jun-13 23:30N 41°11' W 008°42'0 0.0
2018-Jun-13 23:00N 41°11' W 008°42'0 0.0
2018-Jun-13 22:30N 41°11' W 008°42'0 0.0
2018-Jun-13 22:00N 41°11' W 008°42'0 0.0
2018-Jun-13 01:31N 41°11' W 008°42'0 0.1
2018-Jun-13 01:30N 41°11' W 008°42'3 5.5
2018-Jun-13 01:00N 41°08' W 008°43'1 0.5
2018-Jun-12 22:59N 41°07' W 008°43'4 8.1
2018-Jun-12 22:30N 41°11' W 008°42'0 0.0
2018-Jun-12 22:00N 41°11' W 008°42'0 0.0
2018-Jun-12 09:37N 41°11' W 008°42'0 0.0
2018-Jun-12 09:30N 41°11' W 008°42'0 0.0
2018-Jun-12 09:00N 41°11' W 008°42'0 0.0
2018-Jun-12 08:29N 41°11' W 008°42'0 0.0
2018-Jun-12 08:00N 41°11' W 008°42'0 0.0
2018-Jun-12 07:30N 41°11' W 008°42'0 0.0
2018-Jun-12 07:00N 41°11' W 008°42'0 0.0
2018-Jun-12 06:29N 41°11' W 008°42'1 0.2
2018-Jun-11 22:03N 41°10' W 008°43'0 9.8
2018-Jun-11 22:00N 41°10' W 008°42'1 0.1
2018-Jun-11 10:26N 41°11' W 008°42'0 0.3
2018-Jun-11 10:00N 41°11' W 008°42'0 0.3
2018-Jun-11 09:31N 41°11' W 008°42'0 0.0
2018-Jun-11 09:01N 41°11' W 008°42'0 0.0
2018-Jun-11 08:30N 41°11' W 008°42'  
Track history (hours):
 
Tides and Currents Weather Stations Pressure Air Temp Water Temp Dewpoint Dewpoint Depression Visibility Wind Speed Wind Dir Waves Ship Positions

Pedro Andre

Last reported at 2018-Jun-21 08:30 UTC. Time now 2018-Jun-21 08:31 UTC.
Position N 41°11' W 008°42'.

Length 22 m.

Type: Fishing. MMSI: 263500208.

Date/timePositionNaut miles runAvg speedWind from/ knotsBaromVisibWave heightAir tempDewpointWater temp
2018-Jun-21 08:30N 41°11' W 008°42'0 0.3
2018-Jun-21 08:00N 41°11' W 008°42'0 0.0
2018-Jun-21 07:30N 41°11' W 008°42'0 0.3
2018-Jun-21 07:00N 41°11' W 008°42'0 0.0
2018-Jun-21 06:30N 41°11' W 008°42'3 0.3
2018-Jun-20 22:07N 41°08' W 008°43'1 9.9
2018-Jun-20 22:00N 41°09' W 008°43'2 0.1
2018-Jun-20 04:52N 41°11' W 008°42'3 7.1
2018-Jun-20 04:30N 41°09' W 008°43'2 0.3
2018-Jun-19 22:21N 41°09' W 008°45'3 8.8
2018-Jun-19 22:00N 41°11' W 008°42'0 0.0
2018-Jun-19 07:09N 41°11' W 008°42'0 0.0
2018-Jun-19 07:00N 41°11' W 008°42'0 0.0
2018-Jun-19 06:30N 41°11' W 008°42'0 0.0
2018-Jun-19 06:00N 41°11' W 008°42'0 0.0
2018-Jun-19 05:30N 41°11' W 008°42'0 0.0
2018-Jun-19 04:59N 41°11' W 008°42'0 0.0
2018-Jun-19 04:30N 41°11' W 008°42'0 0.0
2018-Jun-19 04:00N 41°11' W 008°42'2 0.3
2018-Jun-18 22:19N 41°09' W 008°43'2 5.9
2018-Jun-18 22:00N 41°11' W 008°42'0 0.0
2018-Jun-18 21:30N 41°11' W 008°42'0 0.0
2018-Jun-18 12:38N 41°11' W 008°42'0 0.0
2018-Jun-18 12:30N 41°11' W 008°42'0 0.0
2018-Jun-18 12:00N 41°11' W 008°42'0 0.0
2018-Jun-18 11:30N 41°11' W 008°42'0 0.0
2018-Jun-18 11:00N 41°11' W 008°42'0 0.3
2018-Jun-18 10:30N 41°11' W 008°42'2 0.2
2018-Jun-18 00:51N 41°09' W 008°44'2 6.3
2018-Jun-18 00:30N 41°11' W 008°42'0 0.0
2018-Jun-18 00:00N 41°11' W 008°42'0 0.0
2018-Jun-17 23:29N 41°11' W 008°42'0 0.0
2018-Jun-17 23:00N 41°11' W 008°42'0 0.0
2018-Jun-17 22:30N 41°11' W 008°42'0 0.0
2018-Jun-17 22:00N 41°11' W 008°42'  
2018-Jun-15 08:58N 41°11' W 008°42'0 0.0
2018-Jun-15 08:30N 41°11' W 008°42'0 0.0
2018-Jun-15 07:59N 41°11' W 008°42'0 0.0
2018-Jun-15 07:30N 41°11' W 008°42'0 0.0
2018-Jun-15 07:00N 41°11' W 008°42'3 0.5
2018-Jun-15 00:48N 41°08' W 008°42'2 8.4
2018-Jun-15 00:30N 41°10' W 008°42'1 1.3
2018-Jun-15 00:00N 41°11' W 008°42'0 0.0
2018-Jun-14 23:30N 41°11' W 008°42'0 0.0
2018-Jun-14 23:00N 41°11' W 008°42'0 0.0
2018-Jun-14 22:30N 41°11' W 008°42'0 0.0
2018-Jun-14 22:00N 41°11' W 008°42'0 0.0
2018-Jun-14 10:22N 41°11' W 008°42'0 0.0
2018-Jun-14 10:00N 41°11' W 008°42'0 0.0
2018-Jun-14 09:30N 41°11' W 008°42'0 0.8
2018-Jun-14 09:00N 41°11' W 008°42'2 0.2
2018-Jun-14 00:46N 41°09' W 008°43'2 7.8
2018-Jun-14 00:30N 41°11' W 008°42'0 0.0
2018-Jun-14 00:00N 41°11' W 008°42'0 0.0
2018-Jun-13 23:30N 41°11' W 008°42'0 0.0
2018-Jun-13 23:00N 41°11' W 008°42'0 0.0
2018-Jun-13 22:30N 41°11' W 008°42'0 0.0
2018-Jun-13 22:00N 41°11' W 008°42'0 0.0
2018-Jun-13 01:31N 41°11' W 008°42'0 0.1
2018-Jun-13 01:30N 41°11' W 008°42'3 5.5
2018-Jun-13 01:00N 41°08' W 008°43'1 0.5
2018-Jun-12 22:59N 41°07' W 008°43'4 8.1
2018-Jun-12 22:30N 41°11' W 008°42'0 0.0
2018-Jun-12 22:00N 41°11' W 008°42'0 0.0
2018-Jun-12 09:37N 41°11' W 008°42'0 0.0
2018-Jun-12 09:30N 41°11' W 008°42'0 0.0
2018-Jun-12 09:00N 41°11' W 008°42'0 0.0
2018-Jun-12 08:29N 41°11' W 008°42'0 0.0
2018-Jun-12 08:00N 41°11' W 008°42'0 0.0
2018-Jun-12 07:30N 41°11' W 008°42'0 0.0
2018-Jun-12 07:00N 41°11' W 008°42'0 0.0
2018-Jun-12 06:29N 41°11' W 008°42'1 0.2
2018-Jun-11 22:03N 41°10' W 008°43'0 9.8
2018-Jun-11 22:00N 41°10' W 008°42'1 0.1
2018-Jun-11 10:26N 41°11' W 008°42'0 0.3
2018-Jun-11 10:00N 41°11' W 008°42'0 0.3
2018-Jun-11 09:31N 41°11' W 008°42'0 0.0
2018-Jun-11 09:01N 41°11' W 008°42'0 0.0
2018-Jun-11 08:30N 41°11' W 008°42'  

Dump ship's entire track history